sensor_id;sensor_type;location;lat;lon;timestamp;P1;durP1;ratioP1;P2;durP2;ratioP2
47958;SDS011;33718;50.910;-1.514;2024-02-14T00:01:03;79.63;;;10.23;;
47958;SDS011;33718;50.910;-1.514;2024-02-14T00:05:08;78.00;;;10.57;;
47958;SDS011;33718;50.910;-1.514;2024-02-14T00:07:12;81.13;;;7.53;;
47958;SDS011;33718;50.910;-1.514;2024-02-14T00:09:13;89.53;;;8.55;;
47958;SDS011;33718;50.910;-1.514;2024-02-14T00:11:15;75.38;;;7.22;;
47958;SDS011;33718;50.910;-1.514;2024-02-14T00:13:18;64.22;;;7.32;;
47958;SDS011;33718;50.910;-1.514;2024-02-14T00:15:20;78.90;;;7.43;;
47958;SDS011;33718;50.910;-1.514;2024-02-14T00:17:21;66.75;;;6.90;;
47958;SDS011;33718;50.910;-1.514;2024-02-14T00:19:23;73.95;;;7.78;;
47958;SDS011;33718;50.910;-1.514;2024-02-14T00:21:25;66.75;;;7.38;;
47958;SDS011;33718;50.910;-1.514;2024-02-14T00:23:26;80.43;;;7.22;;
47958;SDS011;33718;50.910;-1.514;2024-02-14T00:25:28;65.70;;;7.72;;
47958;SDS011;33718;50.910;-1.514;2024-02-14T00:27:31;73.22;;;7.15;;
47958;SDS011;33718;50.910;-1.514;2024-02-14T00:29:33;64.72;;;7.13;;
47958;SDS011;33718;50.910;-1.514;2024-02-14T00:31:37;75.47;;;7.07;;
47958;SDS011;33718;50.910;-1.514;2024-02-14T00:33:39;82.82;;;7.07;;
47958;SDS011;33718;50.910;-1.514;2024-02-14T00:35:41;61.13;;;7.95;;
47958;SDS011;33718;50.910;-1.514;2024-02-14T00:37:43;60.13;;;6.75;;
47958;SDS011;33718;50.910;-1.514;2024-02-14T00:39:45;42.58;;;6.35;;
47958;SDS011;33718;50.910;-1.514;2024-02-14T00:41:46;46.33;;;5.57;;
47958;SDS011;33718;50.910;-1.514;2024-02-14T00:43:48;52.05;;;5.82;;
47958;SDS011;33718;50.910;-1.514;2024-02-14T00:45:50;60.90;;;5.13;;
47958;SDS011;33718;50.910;-1.514;2024-02-14T00:47:52;52.15;;;4.78;;
47958;SDS011;33718;50.910;-1.514;2024-02-14T00:49:54;30.92;;;3.90;;
47958;SDS011;33718;50.910;-1.514;2024-02-14T00:51:55;55.78;;;5.93;;
47958;SDS011;33718;50.910;-1.514;2024-02-14T00:53:57;37.30;;;4.53;;
47958;SDS011;33718;50.910;-1.514;2024-02-14T00:56:00;53.30;;;6.00;;
47958;SDS011;33718;50.910;-1.514;2024-02-14T00:58:02;47.03;;;5.45;;
47958;SDS011;33718;50.910;-1.514;2024-02-14T01:00:23;39.17;;;3.90;;
47958;SDS011;33718;50.910;-1.514;2024-02-14T01:02:24;54.10;;;6.20;;
47958;SDS011;33718;50.910;-1.514;2024-02-14T01:04:27;39.08;;;3.92;;
47958;SDS011;33718;50.910;-1.514;2024-02-14T01:06:30;49.58;;;4.75;;
47958;SDS011;33718;50.910;-1.514;2024-02-14T01:08:31;32.90;;;4.82;;
47958;SDS011;33718;50.910;-1.514;2024-02-14T01:10:35;34.90;;;4.82;;
47958;SDS011;33718;50.910;-1.514;2024-02-14T01:12:36;50.17;;;5.18;;
47958;SDS011;33718;50.910;-1.514;2024-02-14T01:14:56;31.38;;;3.50;;
47958;SDS011;33718;50.910;-1.514;2024-02-14T01:16:58;35.72;;;3.70;;
47958;SDS011;33718;50.910;-1.514;2024-02-14T01:19:00;23.65;;;3.67;;
47958;SDS011;33718;50.910;-1.514;2024-02-14T01:21:02;33.05;;;4.20;;
47958;SDS011;33718;50.910;-1.514;2024-02-14T01:23:22;31.77;;;4.10;;
47958;SDS011;33718;50.910;-1.514;2024-02-14T01:25:25;40.03;;;4.00;;
47958;SDS011;33718;50.910;-1.514;2024-02-14T01:27:46;25.92;;;3.38;;
47958;SDS011;33718;50.910;-1.514;2024-02-14T01:30:08;44.60;;;4.32;;
47958;SDS011;33718;50.910;-1.514;2024-02-14T01:32:11;25.98;;;4.13;;
47958;SDS011;33718;50.910;-1.514;2024-02-14T01:34:13;24.67;;;3.65;;
47958;SDS011;33718;50.910;-1.514;2024-02-14T01:36:14;22.10;;;3.15;;
47958;SDS011;33718;50.910;-1.514;2024-02-14T01:38:17;32.75;;;3.05;;
47958;SDS011;33718;50.910;-1.514;2024-02-14T01:40:19;31.10;;;2.67;;
47958;SDS011;33718;50.910;-1.514;2024-02-14T01:42:21;42.85;;;4.03;;
47958;SDS011;33718;50.910;-1.514;2024-02-14T01:44:22;27.02;;;2.80;;
47958;SDS011;33718;50.910;-1.514;2024-02-14T01:46:24;29.27;;;3.00;;
47958;SDS011;33718;50.910;-1.514;2024-02-14T01:48:25;21.88;;;3.47;;
47958;SDS011;33718;50.910;-1.514;2024-02-14T01:50:27;17.67;;;3.03;;
47958;SDS011;33718;50.910;-1.514;2024-02-14T01:52:33;34.40;;;3.83;;
47958;SDS011;33718;50.910;-1.514;2024-02-14T01:54:34;27.70;;;3.15;;
47958;SDS011;33718;50.910;-1.514;2024-02-14T01:56:36;36.28;;;4.30;;
47958;SDS011;33718;50.910;-1.514;2024-02-14T01:58:38;32.92;;;3.47;;
47958;SDS011;33718;50.910;-1.514;2024-02-14T02:00:40;28.77;;;2.97;;
47958;SDS011;33718;50.910;-1.514;2024-02-14T02:02:42;22.38;;;3.30;;
47958;SDS011;33718;50.910;-1.514;2024-02-14T02:05:03;23.65;;;2.83;;
47958;SDS011;33718;50.910;-1.514;2024-02-14T02:07:05;30.20;;;4.38;;
47958;SDS011;33718;50.910;-1.514;2024-02-14T02:09:06;19.17;;;3.17;;
47958;SDS011;33718;50.910;-1.514;2024-02-14T02:11:09;26.80;;;2.85;;
47958;SDS011;33718;50.910;-1.514;2024-02-14T02:13:11;28.65;;;3.40;;
47958;SDS011;33718;50.910;-1.514;2024-02-14T02:15:12;17.40;;;2.88;;
47958;SDS011;33718;50.910;-1.514;2024-02-14T02:17:15;31.80;;;3.30;;
47958;SDS011;33718;50.910;-1.514;2024-02-14T02:19:16;30.88;;;3.85;;
47958;SDS011;33718;50.910;-1.514;2024-02-14T02:21:18;30.17;;;3.38;;
47958;SDS011;33718;50.910;-1.514;2024-02-14T02:23:25;38.97;;;5.28;;
47958;SDS011;33718;50.910;-1.514;2024-02-14T02:25:26;31.10;;;3.83;;
47958;SDS011;33718;50.910;-1.514;2024-02-14T02:27:47;36.40;;;4.07;;
47958;SDS011;33718;50.910;-1.514;2024-02-14T02:29:49;34.83;;;4.65;;
47958;SDS011;33718;50.910;-1.514;2024-02-14T02:32:11;44.00;;;4.10;;
47958;SDS011;33718;50.910;-1.514;2024-02-14T02:34:32;44.22;;;3.58;;
47958;SDS011;33718;50.910;-1.514;2024-02-14T02:36:35;38.08;;;3.63;;
47958;SDS011;33718;50.910;-1.514;2024-02-14T02:38:38;38.88;;;5.38;;
47958;SDS011;33718;50.910;-1.514;2024-02-14T02:40:41;29.83;;;3.40;;
47958;SDS011;33718;50.910;-1.514;2024-02-14T02:42:43;29.05;;;3.15;;
47958;SDS011;33718;50.910;-1.514;2024-02-14T02:45:06;27.15;;;3.35;;
47958;SDS011;33718;50.910;-1.514;2024-02-14T02:47:09;41.33;;;5.20;;
47958;SDS011;33718;50.910;-1.514;2024-02-14T02:49:31;44.78;;;5.30;;
47958;SDS011;33718;50.910;-1.514;2024-02-14T02:51:34;37.95;;;4.90;;
47958;SDS011;33718;50.910;-1.514;2024-02-14T02:53:37;39.45;;;3.72;;
47958;SDS011;33718;50.910;-1.514;2024-02-14T02:55:40;37.45;;;5.72;;
47958;SDS011;33718;50.910;-1.514;2024-02-14T02:57:43;34.60;;;4.22;;
47958;SDS011;33718;50.910;-1.514;2024-02-14T03:01:50;37.42;;;4.50;;
47958;SDS011;33718;50.910;-1.514;2024-02-14T03:04:11;41.00;;;4.30;;
47958;SDS011;33718;50.910;-1.514;2024-02-14T03:06:17;40.60;;;4.55;;
47958;SDS011;33718;50.910;-1.514;2024-02-14T03:08:19;37.13;;;5.47;;
47958;SDS011;33718;50.910;-1.514;2024-02-14T03:10:26;30.02;;;4.53;;
47958;SDS011;33718;50.910;-1.514;2024-02-14T03:12:29;39.92;;;5.50;;
47958;SDS011;33718;50.910;-1.514;2024-02-14T03:14:33;38.63;;;5.80;;
47958;SDS011;33718;50.910;-1.514;2024-02-14T03:16:34;43.28;;;6.00;;
47958;SDS011;33718;50.910;-1.514;2024-02-14T03:18:38;27.42;;;5.43;;
47958;SDS011;33718;50.910;-1.514;2024-02-14T03:20:40;30.27;;;4.38;;
47958;SDS011;33718;50.910;-1.514;2024-02-14T03:22:42;39.92;;;5.15;;
47958;SDS011;33718;50.910;-1.514;2024-02-14T03:26:48;26.45;;;3.72;;
47958;SDS011;33718;50.910;-1.514;2024-02-14T03:28:52;34.00;;;4.20;;
47958;SDS011;33718;50.910;-1.514;2024-02-14T03:30:55;43.05;;;5.55;;
47958;SDS011;33718;50.910;-1.514;2024-02-14T03:32:58;37.45;;;5.47;;
47958;SDS011;33718;50.910;-1.514;2024-02-14T03:35:00;33.88;;;4.30;;
47958;SDS011;33718;50.910;-1.514;2024-02-14T03:37:02;34.08;;;3.88;;
47958;SDS011;33718;50.910;-1.514;2024-02-14T03:39:04;40.92;;;5.43;;
47958;SDS011;33718;50.910;-1.514;2024-02-14T03:41:06;48.10;;;5.90;;
47958;SDS011;33718;50.910;-1.514;2024-02-14T03:43:09;49.20;;;5.72;;
47958;SDS011;33718;50.910;-1.514;2024-02-14T03:45:13;44.58;;;6.45;;
47958;SDS011;33718;50.910;-1.514;2024-02-14T03:47:15;49.65;;;5.95;;
47958;SDS011;33718;50.910;-1.514;2024-02-14T03:49:17;63.83;;;6.20;;
47958;SDS011;33718;50.910;-1.514;2024-02-14T03:51:18;50.03;;;5.88;;
47958;SDS011;33718;50.910;-1.514;2024-02-14T03:53:21;42.90;;;5.57;;
47958;SDS011;33718;50.910;-1.514;2024-02-14T03:55:41;53.40;;;7.90;;
47958;SDS011;33718;50.910;-1.514;2024-02-14T03:57:42;44.92;;;5.93;;
47958;SDS011;33718;50.910;-1.514;2024-02-14T03:59:46;42.90;;;5.68;;
47958;SDS011;33718;50.910;-1.514;2024-02-14T04:01:48;42.85;;;5.63;;
47958;SDS011;33718;50.910;-1.514;2024-02-14T04:03:50;50.30;;;5.57;;
47958;SDS011;33718;50.910;-1.514;2024-02-14T04:05:52;66.40;;;7.25;;
47958;SDS011;33718;50.910;-1.514;2024-02-14T04:07:54;34.35;;;4.20;;
47958;SDS011;33718;50.910;-1.514;2024-02-14T04:09:55;58.25;;;5.22;;
47958;SDS011;33718;50.910;-1.514;2024-02-14T04:11:57;48.10;;;5.03;;
47958;SDS011;33718;50.910;-1.514;2024-02-14T04:13:59;36.92;;;5.40;;
47958;SDS011;33718;50.910;-1.514;2024-02-14T04:16:00;32.97;;;4.03;;
47958;SDS011;33718;50.910;-1.514;2024-02-14T04:18:02;46.10;;;5.57;;
47958;SDS011;33718;50.910;-1.514;2024-02-14T04:20:08;36.67;;;3.95;;
47958;SDS011;33718;50.910;-1.514;2024-02-14T04:22:10;34.53;;;3.60;;
47958;SDS011;33718;50.910;-1.514;2024-02-14T04:24:11;31.33;;;3.83;;
47958;SDS011;33718;50.910;-1.514;2024-02-14T04:26:22;32.50;;;5.07;;
47958;SDS011;33718;50.910;-1.514;2024-02-14T04:28:23;31.60;;;4.90;;
47958;SDS011;33718;50.910;-1.514;2024-02-14T04:30:25;27.40;;;3.20;;
47958;SDS011;33718;50.910;-1.514;2024-02-14T04:32:27;40.30;;;4.60;;
47958;SDS011;33718;50.910;-1.514;2024-02-14T04:34:29;34.00;;;4.35;;
47958;SDS011;33718;50.910;-1.514;2024-02-14T04:36:32;42.75;;;4.85;;
47958;SDS011;33718;50.910;-1.514;2024-02-14T04:38:34;43.92;;;6.38;;
47958;SDS011;33718;50.910;-1.514;2024-02-14T04:40:36;36.47;;;4.13;;
47958;SDS011;33718;50.910;-1.514;2024-02-14T04:42:39;35.70;;;4.70;;
47958;SDS011;33718;50.910;-1.514;2024-02-14T04:44:41;26.75;;;3.53;;
47958;SDS011;33718;50.910;-1.514;2024-02-14T04:46:43;30.92;;;3.38;;
47958;SDS011;33718;50.910;-1.514;2024-02-14T04:48:46;49.80;;;3.70;;
47958;SDS011;33718;50.910;-1.514;2024-02-14T04:50:48;33.70;;;3.47;;
47958;SDS011;33718;50.910;-1.514;2024-02-14T04:52:50;21.00;;;3.05;;
47958;SDS011;33718;50.910;-1.514;2024-02-14T04:54:51;36.40;;;4.10;;
47958;SDS011;33718;50.910;-1.514;2024-02-14T04:56:53;17.58;;;3.00;;
47958;SDS011;33718;50.910;-1.514;2024-02-14T04:58:59;45.55;;;3.70;;
47958;SDS011;33718;50.910;-1.514;2024-02-14T05:01:01;34.40;;;4.07;;
47958;SDS011;33718;50.910;-1.514;2024-02-14T05:03:03;32.00;;;2.85;;
47958;SDS011;33718;50.910;-1.514;2024-02-14T05:05:05;36.58;;;4.05;;
47958;SDS011;33718;50.910;-1.514;2024-02-14T05:07:07;18.08;;;2.83;;
47958;SDS011;33718;50.910;-1.514;2024-02-14T05:09:09;17.65;;;4.45;;
47958;SDS011;33718;50.910;-1.514;2024-02-14T05:11:32;15.48;;;2.08;;
47958;SDS011;33718;50.910;-1.514;2024-02-14T05:13:33;17.17;;;2.05;;
47958;SDS011;33718;50.910;-1.514;2024-02-14T05:15:35;28.77;;;2.60;;
47958;SDS011;33718;50.910;-1.514;2024-02-14T05:17:36;26.48;;;3.65;;
47958;SDS011;33718;50.910;-1.514;2024-02-14T05:19:41;19.60;;;2.15;;
47958;SDS011;33718;50.910;-1.514;2024-02-14T05:22:01;21.85;;;2.40;;
47958;SDS011;33718;50.910;-1.514;2024-02-14T05:24:03;25.38;;;3.22;;
47958;SDS011;33718;50.910;-1.514;2024-02-14T05:26:05;16.83;;;1.75;;
47958;SDS011;33718;50.910;-1.514;2024-02-14T05:28:10;15.13;;;1.73;;
47958;SDS011;33718;50.910;-1.514;2024-02-14T05:30:17;14.10;;;1.58;;
47958;SDS011;33718;50.910;-1.514;2024-02-14T05:32:19;10.43;;;1.35;;
47958;SDS011;33718;50.910;-1.514;2024-02-14T05:34:42;11.68;;;2.03;;
47958;SDS011;33718;50.910;-1.514;2024-02-14T05:37:04;12.02;;;1.85;;
47958;SDS011;33718;50.910;-1.514;2024-02-14T05:39:09;19.98;;;1.88;;
47958;SDS011;33718;50.910;-1.514;2024-02-14T05:41:13;9.73;;;1.15;;
47958;SDS011;33718;50.910;-1.514;2024-02-14T05:45:22;9.63;;;1.30;;
47958;SDS011;33718;50.910;-1.514;2024-02-14T05:47:25;4.30;;;1.15;;
47958;SDS011;33718;50.910;-1.514;2024-02-14T05:51:33;18.73;;;1.52;;
47958;SDS011;33718;50.910;-1.514;2024-02-14T05:53:37;13.45;;;1.08;;
47958;SDS011;33718;50.910;-1.514;2024-02-14T05:55:42;15.80;;;1.42;;
47958;SDS011;33718;50.910;-1.514;2024-02-14T05:57:46;14.68;;;1.95;;
47958;SDS011;33718;50.910;-1.514;2024-02-14T05:59:52;16.27;;;2.13;;
47958;SDS011;33718;50.910;-1.514;2024-02-14T06:01:58;17.08;;;1.65;;
47958;SDS011;33718;50.910;-1.514;2024-02-14T06:04:21;18.05;;;1.90;;
47958;SDS011;33718;50.910;-1.514;2024-02-14T06:06:24;18.45;;;2.05;;
47958;SDS011;33718;50.910;-1.514;2024-02-14T06:08:29;21.48;;;2.42;;
47958;SDS011;33718;50.910;-1.514;2024-02-14T06:10:51;14.60;;;1.98;;
47958;SDS011;33718;50.910;-1.514;2024-02-14T06:12:55;17.17;;;2.35;;
47958;SDS011;33718;50.910;-1.514;2024-02-14T06:15:16;19.90;;;3.15;;
47958;SDS011;33718;50.910;-1.514;2024-02-14T06:17:18;23.20;;;2.50;;
47958;SDS011;33718;50.910;-1.514;2024-02-14T06:19:19;18.95;;;2.40;;
47958;SDS011;33718;50.910;-1.514;2024-02-14T06:21:21;21.15;;;2.95;;
47958;SDS011;33718;50.910;-1.514;2024-02-14T06:23:23;27.20;;;2.67;;
47958;SDS011;33718;50.910;-1.514;2024-02-14T06:25:25;19.55;;;2.75;;
47958;SDS011;33718;50.910;-1.514;2024-02-14T06:27:26;25.85;;;2.95;;
47958;SDS011;33718;50.910;-1.514;2024-02-14T06:29:29;31.80;;;3.80;;
47958;SDS011;33718;50.910;-1.514;2024-02-14T06:31:30;30.05;;;3.00;;
47958;SDS011;33718;50.910;-1.514;2024-02-14T06:33:32;24.17;;;3.25;;
47958;SDS011;33718;50.910;-1.514;2024-02-14T06:35:34;26.95;;;2.67;;
47958;SDS011;33718;50.910;-1.514;2024-02-14T06:37:36;23.00;;;3.10;;
47958;SDS011;33718;50.910;-1.514;2024-02-14T06:39:52;21.40;;;3.20;;
47958;SDS011;33718;50.910;-1.514;2024-02-14T06:42:12;26.25;;;3.65;;
47958;SDS011;33718;50.910;-1.514;2024-02-14T06:44:14;37.17;;;4.35;;
47958;SDS011;33718;50.910;-1.514;2024-02-14T06:46:16;36.33;;;3.58;;
47958;SDS011;33718;50.910;-1.514;2024-02-14T06:48:17;36.17;;;4.32;;
47958;SDS011;33718;50.910;-1.514;2024-02-14T06:50:23;24.40;;;3.10;;
47958;SDS011;33718;50.910;-1.514;2024-02-14T06:52:27;22.40;;;5.00;;
47958;SDS011;33718;50.910;-1.514;2024-02-14T06:54:29;29.75;;;3.15;;
47958;SDS011;33718;50.910;-1.514;2024-02-14T06:56:31;38.45;;;3.63;;
47958;SDS011;33718;50.910;-1.514;2024-02-14T06:58:51;22.88;;;2.95;;
47958;SDS011;33718;50.910;-1.514;2024-02-14T07:01:13;30.85;;;2.97;;
47958;SDS011;33718;50.910;-1.514;2024-02-14T07:03:16;28.45;;;2.38;;
47958;SDS011;33718;50.910;-1.514;2024-02-14T07:05:18;31.05;;;2.50;;
47958;SDS011;33718;50.910;-1.514;2024-02-14T07:07:20;32.20;;;3.20;;
47958;SDS011;33718;50.910;-1.514;2024-02-14T07:09:21;19.15;;;2.72;;
47958;SDS011;33718;50.910;-1.514;2024-02-14T07:11:23;23.17;;;2.42;;
47958;SDS011;33718;50.910;-1.514;2024-02-14T07:13:25;28.23;;;2.42;;
47958;SDS011;33718;50.910;-1.514;2024-02-14T07:15:27;15.10;;;2.08;;
47958;SDS011;33718;50.910;-1.514;2024-02-14T07:17:30;12.40;;;1.35;;
47958;SDS011;33718;50.910;-1.514;2024-02-14T07:19:32;16.13;;;1.67;;
47958;SDS011;33718;50.910;-1.514;2024-02-14T07:21:34;28.20;;;2.00;;
47958;SDS011;33718;50.910;-1.514;2024-02-14T07:23:35;9.57;;;1.40;;
47958;SDS011;33718;50.910;-1.514;2024-02-14T07:25:37;24.58;;;2.50;;
47958;SDS011;33718;50.910;-1.514;2024-02-14T07:27:39;13.23;;;2.13;;
47958;SDS011;33718;50.910;-1.514;2024-02-14T07:29:41;18.40;;;2.80;;
47958;SDS011;33718;50.910;-1.514;2024-02-14T07:32:01;22.73;;;4.28;;
47958;SDS011;33718;50.910;-1.514;2024-02-14T07:34:21;16.23;;;2.67;;
47958;SDS011;33718;50.910;-1.514;2024-02-14T07:36:42;8.13;;;2.75;;
47958;SDS011;33718;50.910;-1.514;2024-02-14T07:39:06;11.30;;;2.60;;
47958;SDS011;33718;50.910;-1.514;2024-02-14T07:41:08;22.60;;;2.92;;
47958;SDS011;33718;50.910;-1.514;2024-02-14T07:43:10;10.02;;;2.00;;
47958;SDS011;33718;50.910;-1.514;2024-02-14T07:45:11;22.38;;;2.60;;
47958;SDS011;33718;50.910;-1.514;2024-02-14T07:47:32;14.80;;;1.98;;
47958;SDS011;33718;50.910;-1.514;2024-02-14T07:49:34;18.52;;;1.48;;
47958;SDS011;33718;50.910;-1.514;2024-02-14T07:51:36;7.57;;;1.63;;
47958;SDS011;33718;50.910;-1.514;2024-02-14T07:53:41;16.55;;;1.38;;
47958;SDS011;33718;50.910;-1.514;2024-02-14T07:55:42;12.02;;;1.55;;
47958;SDS011;33718;50.910;-1.514;2024-02-14T07:57:44;6.53;;;1.17;;
47958;SDS011;33718;50.910;-1.514;2024-02-14T07:59:46;10.10;;;1.00;;
47958;SDS011;33718;50.910;-1.514;2024-02-14T08:01:47;5.63;;;0.73;;
47958;SDS011;33718;50.910;-1.514;2024-02-14T08:03:49;5.82;;;0.73;;
47958;SDS011;33718;50.910;-1.514;2024-02-14T08:05:51;7.88;;;0.60;;
47958;SDS011;33718;50.910;-1.514;2024-02-14T08:07:53;2.58;;;0.70;;
47958;SDS011;33718;50.910;-1.514;2024-02-14T08:10:13;7.47;;;0.70;;
47958;SDS011;33718;50.910;-1.514;2024-02-14T08:12:15;4.07;;;0.60;;
47958;SDS011;33718;50.910;-1.514;2024-02-14T08:14:16;7.53;;;0.77;;
47958;SDS011;33718;50.910;-1.514;2024-02-14T08:16:18;7.03;;;0.60;;
47958;SDS011;33718;50.910;-1.514;2024-02-14T08:18:20;2.60;;;0.70;;
47958;SDS011;33718;50.910;-1.514;2024-02-14T08:20:22;4.88;;;0.50;;
47958;SDS011;33718;50.910;-1.514;2024-02-14T08:22:24;8.43;;;0.80;;
47958;SDS011;33718;50.910;-1.514;2024-02-14T08:24:46;7.57;;;0.68;;
47958;SDS011;33718;50.910;-1.514;2024-02-14T08:26:48;3.47;;;0.77;;
47958;SDS011;33718;50.910;-1.514;2024-02-14T08:29:08;5.78;;;0.73;;
47958;SDS011;33718;50.910;-1.514;2024-02-14T08:33:14;6.90;;;0.90;;
47958;SDS011;33718;50.910;-1.514;2024-02-14T08:35:16;11.38;;;1.02;;
47958;SDS011;33718;50.910;-1.514;2024-02-14T08:37:19;8.88;;;1.08;;
47958;SDS011;33718;50.910;-1.514;2024-02-14T08:39:21;3.53;;;1.02;;
47958;SDS011;33718;50.910;-1.514;2024-02-14T08:41:23;7.43;;;1.30;;
47958;SDS011;33718;50.910;-1.514;2024-02-14T08:43:26;15.77;;;1.30;;
47958;SDS011;33718;50.910;-1.514;2024-02-14T08:47:33;12.85;;;1.20;;
47958;SDS011;33718;50.910;-1.514;2024-02-14T08:49:55;6.97;;;1.00;;
47958;SDS011;33718;50.910;-1.514;2024-02-14T08:51:57;9.02;;;1.48;;
47958;SDS011;33718;50.910;-1.514;2024-02-14T08:54:00;8.07;;;2.08;;
47958;SDS011;33718;50.910;-1.514;2024-02-14T08:56:07;12.43;;;1.75;;
47958;SDS011;33718;50.910;-1.514;2024-02-14T08:58:09;12.77;;;1.90;;
47958;SDS011;33718;50.910;-1.514;2024-02-14T09:00:12;17.15;;;2.00;;
47958;SDS011;33718;50.910;-1.514;2024-02-14T09:02:35;16.13;;;2.55;;
47958;SDS011;33718;50.910;-1.514;2024-02-14T09:04:37;13.63;;;1.75;;
47958;SDS011;33718;50.910;-1.514;2024-02-14T09:06:40;14.23;;;1.70;;
47958;SDS011;33718;50.910;-1.514;2024-02-14T09:08:43;14.35;;;2.13;;
47958;SDS011;33718;50.910;-1.514;2024-02-14T09:10:46;13.02;;;1.52;;
47958;SDS011;33718;50.910;-1.514;2024-02-14T09:12:48;11.82;;;1.60;;
47958;SDS011;33718;50.910;-1.514;2024-02-14T09:14:50;10.45;;;1.98;;
47958;SDS011;33718;50.910;-1.514;2024-02-14T09:16:53;14.65;;;1.50;;
47958;SDS011;33718;50.910;-1.514;2024-02-14T09:18:55;8.77;;;1.02;;
47958;SDS011;33718;50.910;-1.514;2024-02-14T09:20:58;15.07;;;2.08;;
47958;SDS011;33718;50.910;-1.514;2024-02-14T09:23:00;12.80;;;2.28;;
47958;SDS011;33718;50.910;-1.514;2024-02-14T09:25:02;10.07;;;1.17;;
47958;SDS011;33718;50.910;-1.514;2024-02-14T09:27:07;14.75;;;1.48;;
47958;SDS011;33718;50.910;-1.514;2024-02-14T09:29:09;15.60;;;1.80;;
47958;SDS011;33718;50.910;-1.514;2024-02-14T09:31:30;21.33;;;1.77;;
47958;SDS011;33718;50.910;-1.514;2024-02-14T09:33:32;14.15;;;1.58;;
47958;SDS011;33718;50.910;-1.514;2024-02-14T09:35:34;21.55;;;2.28;;
47958;SDS011;33718;50.910;-1.514;2024-02-14T09:37:37;17.48;;;1.65;;
47958;SDS011;33718;50.910;-1.514;2024-02-14T09:39:39;15.40;;;1.92;;
47958;SDS011;33718;50.910;-1.514;2024-02-14T09:41:46;19.17;;;2.10;;
47958;SDS011;33718;50.910;-1.514;2024-02-14T09:43:52;15.25;;;2.38;;
47958;SDS011;33718;50.910;-1.514;2024-02-14T09:45:54;14.25;;;1.60;;
47958;SDS011;33718;50.910;-1.514;2024-02-14T09:47:56;23.58;;;2.75;;
47958;SDS011;33718;50.910;-1.514;2024-02-14T09:49:58;19.15;;;2.60;;
47958;SDS011;33718;50.910;-1.514;2024-02-14T09:52:16;24.23;;;1.85;;
47958;SDS011;33718;50.910;-1.514;2024-02-14T09:54:18;16.08;;;2.00;;
47958;SDS011;33718;50.910;-1.514;2024-02-14T09:56:20;19.23;;;2.22;;
47958;SDS011;33718;50.910;-1.514;2024-02-14T09:58:23;17.00;;;2.40;;
47958;SDS011;33718;50.910;-1.514;2024-02-14T10:00:26;18.52;;;2.28;;
47958;SDS011;33718;50.910;-1.514;2024-02-14T10:02:29;18.13;;;2.10;;
47958;SDS011;33718;50.910;-1.514;2024-02-14T10:04:31;15.00;;;3.57;;
47958;SDS011;33718;50.910;-1.514;2024-02-14T10:06:33;21.95;;;3.13;;
47958;SDS011;33718;50.910;-1.514;2024-02-14T10:08:35;20.38;;;2.60;;
47958;SDS011;33718;50.910;-1.514;2024-02-14T10:10:45;24.80;;;2.05;;
47958;SDS011;33718;50.910;-1.514;2024-02-14T10:13:11;18.25;;;2.33;;
47958;SDS011;33718;50.910;-1.514;2024-02-14T10:15:12;20.33;;;2.70;;
47958;SDS011;33718;50.910;-1.514;2024-02-14T10:17:18;11.57;;;1.75;;
47958;SDS011;33718;50.910;-1.514;2024-02-14T10:19:20;19.40;;;2.38;;
47958;SDS011;33718;50.910;-1.514;2024-02-14T10:21:21;24.33;;;2.50;;
47958;SDS011;33718;50.910;-1.514;2024-02-14T10:23:23;17.35;;;2.58;;
47958;SDS011;33718;50.910;-1.514;2024-02-14T10:25:25;19.17;;;2.65;;
47958;SDS011;33718;50.910;-1.514;2024-02-14T10:27:27;16.75;;;2.92;;
47958;SDS011;33718;50.910;-1.514;2024-02-14T10:29:47;15.00;;;2.58;;
47958;SDS011;33718;50.910;-1.514;2024-02-14T10:31:49;15.02;;;2.08;;
47958;SDS011;33718;50.910;-1.514;2024-02-14T10:33:51;14.18;;;2.38;;
47958;SDS011;33718;50.910;-1.514;2024-02-14T10:35:54;19.98;;;2.53;;
47958;SDS011;33718;50.910;-1.514;2024-02-14T10:38:00;17.20;;;1.70;;
47958;SDS011;33718;50.910;-1.514;2024-02-14T10:40:03;17.52;;;1.60;;
47958;SDS011;33718;50.910;-1.514;2024-02-14T10:42:24;17.23;;;1.92;;
47958;SDS011;33718;50.910;-1.514;2024-02-14T10:44:26;23.52;;;2.80;;
47958;SDS011;33718;50.910;-1.514;2024-02-14T10:46:27;23.58;;;2.25;;
47958;SDS011;33718;50.910;-1.514;2024-02-14T10:48:33;13.40;;;2.15;;
47958;SDS011;33718;50.910;-1.514;2024-02-14T10:50:55;16.25;;;2.05;;
47958;SDS011;33718;50.910;-1.514;2024-02-14T10:52:59;27.50;;;3.20;;
47958;SDS011;33718;50.910;-1.514;2024-02-14T10:55:02;20.13;;;2.38;;
47958;SDS011;33718;50.910;-1.514;2024-02-14T10:57:06;16.75;;;2.03;;
47958;SDS011;33718;50.910;-1.514;2024-02-14T10:59:15;22.02;;;2.38;;
47958;SDS011;33718;50.910;-1.514;2024-02-14T11:01:36;19.42;;;3.88;;
47958;SDS011;33718;50.910;-1.514;2024-02-14T11:03:39;25.05;;;2.97;;
47958;SDS011;33718;50.910;-1.514;2024-02-14T11:05:44;13.15;;;2.20;;
47958;SDS011;33718;50.910;-1.514;2024-02-14T11:07:47;24.25;;;2.75;;
47958;SDS011;33718;50.910;-1.514;2024-02-14T11:10:05;14.85;;;2.05;;
47958;SDS011;33718;50.910;-1.514;2024-02-14T11:12:27;18.77;;;1.92;;
47958;SDS011;33718;50.910;-1.514;2024-02-14T11:14:47;19.58;;;2.63;;
47958;SDS011;33718;50.910;-1.514;2024-02-14T11:16:51;21.40;;;2.43;;
47958;SDS011;33718;50.910;-1.514;2024-02-14T11:19:14;17.58;;;2.30;;
47958;SDS011;33718;50.910;-1.514;2024-02-14T11:21:18;14.07;;;3.30;;
47958;SDS011;33718;50.910;-1.514;2024-02-14T11:23:23;26.75;;;2.75;;
47958;SDS011;33718;50.910;-1.514;2024-02-14T11:25:31;20.60;;;2.90;;
47958;SDS011;33718;50.910;-1.514;2024-02-14T11:27:34;23.35;;;3.10;;
47958;SDS011;33718;50.910;-1.514;2024-02-14T11:29:38;25.45;;;2.75;;
47958;SDS011;33718;50.910;-1.514;2024-02-14T11:31:42;17.73;;;2.30;;
47958;SDS011;33718;50.910;-1.514;2024-02-14T11:33:47;12.70;;;2.20;;
47958;SDS011;33718;50.910;-1.514;2024-02-14T11:37:55;14.63;;;2.08;;
47958;SDS011;33718;50.910;-1.514;2024-02-14T11:39:58;12.48;;;2.28;;
47958;SDS011;33718;50.910;-1.514;2024-02-14T11:42:04;23.65;;;2.42;;
47958;SDS011;33718;50.910;-1.514;2024-02-14T11:44:10;11.48;;;1.73;;
47958;SDS011;33718;50.910;-1.514;2024-02-14T11:46:13;18.85;;;2.13;;
47958;SDS011;33718;50.910;-1.514;2024-02-14T11:48:16;27.98;;;2.10;;
47958;SDS011;33718;50.910;-1.514;2024-02-14T11:50:18;13.18;;;1.30;;
47958;SDS011;33718;50.910;-1.514;2024-02-14T11:52:39;14.65;;;1.67;;
47958;SDS011;33718;50.910;-1.514;2024-02-14T11:54:45;11.43;;;1.58;;
47958;SDS011;33718;50.910;-1.514;2024-02-14T11:56:49;17.60;;;2.80;;
47958;SDS011;33718;50.910;-1.514;2024-02-14T11:58:51;7.22;;;1.48;;
47958;SDS011;33718;50.910;-1.514;2024-02-14T12:00:53;16.23;;;2.83;;
47958;SDS011;33718;50.910;-1.514;2024-02-14T12:03:18;15.63;;;1.63;;
47958;SDS011;33718;50.910;-1.514;2024-02-14T12:05:20;22.20;;;2.42;;
47958;SDS011;33718;50.910;-1.514;2024-02-14T12:07:23;20.77;;;2.28;;
47958;SDS011;33718;50.910;-1.514;2024-02-14T12:09:25;21.77;;;2.45;;
47958;SDS011;33718;50.910;-1.514;2024-02-14T12:11:31;17.33;;;1.70;;
47958;SDS011;33718;50.910;-1.514;2024-02-14T12:13:35;19.98;;;2.38;;
47958;SDS011;33718;50.910;-1.514;2024-02-14T12:15:49;17.90;;;2.47;;
47958;SDS011;33718;50.910;-1.514;2024-02-14T12:17:54;18.23;;;3.03;;
47958;SDS011;33718;50.910;-1.514;2024-02-14T12:20:08;11.68;;;2.13;;
47958;SDS011;33718;50.910;-1.514;2024-02-14T12:22:11;16.05;;;2.50;;
47958;SDS011;33718;50.910;-1.514;2024-02-14T12:24:19;15.13;;;2.05;;
47958;SDS011;33718;50.910;-1.514;2024-02-14T12:26:40;13.32;;;1.63;;
47958;SDS011;33718;50.910;-1.514;2024-02-14T12:28:45;12.52;;;2.22;;
47958;SDS011;33718;50.910;-1.514;2024-02-14T12:31:05;15.45;;;2.03;;